createdAt,value
2019-02-14T00:01:07.086Z,23.00
2019-02-14T00:03:35.268Z,27.10
2019-02-14T00:06:03.481Z,26.63
2019-02-14T00:08:31.703Z,24.40
2019-02-14T00:10:59.884Z,27.57
2019-02-14T00:13:28.072Z,27.00
2019-02-14T00:15:56.328Z,27.40
2019-02-14T00:18:24.546Z,29.00
2019-02-14T00:20:52.811Z,28.37
2019-02-14T00:23:21.031Z,28.87
2019-02-14T00:25:49.269Z,28.83
2019-02-14T00:28:17.482Z,28.80
2019-02-14T00:30:45.687Z,28.27
2019-02-14T00:33:13.869Z,27.57
2019-02-14T00:35:42.116Z,29.23
2019-02-14T00:38:10.306Z,28.70
2019-02-14T00:40:38.960Z,28.40
2019-02-14T00:43:08.091Z,27.90
2019-02-14T00:45:36.377Z,27.30
2019-02-14T00:48:04.635Z,27.33
2019-02-14T00:50:32.856Z,28.13
2019-02-14T00:53:01.070Z,28.57
2019-02-14T00:55:29.301Z,27.27
2019-02-14T00:57:57.484Z,27.10
2019-02-14T01:00:25.716Z,29.60
2019-02-14T01:02:53.989Z,28.27
2019-02-14T01:05:22.209Z,26.57
2019-02-14T01:07:50.433Z,26.57
2019-02-14T01:10:18.793Z,25.00
2019-02-14T01:12:47.000Z,27.17
2019-02-14T01:15:16.824Z,25.33
2019-02-14T01:17:45.068Z,27.63
2019-02-14T01:20:13.264Z,27.50
2019-02-14T01:22:41.533Z,26.43
2019-02-14T01:27:37.174Z,25.27
2019-02-14T01:30:07.252Z,24.80
2019-02-14T01:32:36.346Z,25.13
2019-02-14T01:35:05.745Z,26.10
2019-02-14T01:40:01.327Z,23.20
2019-02-14T01:44:56.905Z,25.23
2019-02-14T01:47:25.138Z,22.93
2019-02-14T01:49:53.385Z,22.30
2019-02-14T01:52:21.608Z,23.10
2019-02-14T01:54:49.831Z,20.77
2019-02-14T01:57:18.053Z,23.40
2019-02-14T01:59:46.273Z,22.23
2019-02-14T02:02:14.463Z,21.97
2019-02-14T02:04:42.651Z,23.77
2019-02-14T02:07:10.840Z,21.27
2019-02-14T02:09:39.036Z,21.77
2019-02-14T02:12:07.224Z,22.53
2019-02-14T02:14:35.473Z,22.13
2019-02-14T02:17:03.675Z,21.95
2019-02-14T02:19:31.929Z,21.67
2019-02-14T02:22:00.140Z,20.30
2019-02-14T02:24:29.204Z,20.90
2019-02-14T02:26:57.420Z,22.10
2019-02-14T02:29:25.638Z,22.60
2019-02-14T02:31:53.917Z,20.33
2019-02-14T02:34:22.137Z,20.83
2019-02-14T02:36:50.324Z,20.70
2019-02-14T02:39:18.541Z,19.90
2019-02-14T02:41:46.776Z,19.93
2019-02-14T02:44:14.971Z,19.37
2019-02-14T02:46:43.156Z,19.85
2019-02-14T02:49:11.408Z,18.97
2019-02-14T02:51:39.654Z,19.15
2019-02-14T02:54:07.831Z,19.23
2019-02-14T02:56:36.377Z,18.37
2019-02-14T02:59:05.257Z,19.90
2019-02-14T03:01:33.441Z,18.20
2019-02-14T03:04:01.665Z,19.13
2019-02-14T03:06:29.854Z,17.70
2019-02-14T03:08:58.040Z,19.67
2019-02-14T03:11:26.321Z,17.67
2019-02-14T03:13:54.536Z,17.87
2019-02-14T03:16:23.125Z,18.13
2019-02-14T03:18:51.413Z,17.90
2019-02-14T03:21:19.605Z,17.93
2019-02-14T03:23:47.834Z,18.40
2019-02-14T03:26:16.045Z,17.40
2019-02-14T03:28:44.269Z,16.47
2019-02-14T03:31:12.494Z,16.48
2019-02-14T03:33:40.703Z,15.93
2019-02-14T03:36:08.891Z,16.90
2019-02-14T03:38:37.113Z,17.03
2019-02-14T03:41:05.335Z,18.50
2019-02-14T03:43:33.617Z,16.87
2019-02-14T03:46:01.849Z,15.80
2019-02-14T03:48:30.019Z,17.83
2019-02-14T03:50:58.243Z,16.40
2019-02-14T03:53:26.469Z,15.90
2019-02-14T03:55:54.659Z,15.97
2019-02-14T03:58:22.885Z,15.20
2019-02-14T04:00:51.130Z,15.80
2019-02-14T04:03:19.354Z,15.03
2019-02-14T04:05:47.567Z,14.70
2019-02-14T04:08:15.779Z,15.97
2019-02-14T04:10:44.060Z,15.05
2019-02-14T04:13:12.285Z,14.70
2019-02-14T04:15:40.477Z,14.80
2019-02-14T04:18:08.663Z,14.60
2019-02-14T04:20:36.904Z,14.17
2019-02-14T04:23:05.148Z,14.87
2019-02-14T04:25:33.365Z,14.50
2019-02-14T04:28:01.900Z,13.53
2019-02-14T04:30:30.201Z,14.00
2019-02-14T04:32:58.417Z,13.70
2019-02-14T04:35:26.637Z,14.17
2019-02-14T04:37:54.845Z,14.67
2019-02-14T04:40:23.073Z,14.30
2019-02-14T04:42:51.293Z,13.90
2019-02-14T04:45:19.525Z,15.03
2019-02-14T04:47:47.750Z,13.98
2019-02-14T04:50:15.944Z,13.25
2019-02-14T04:52:44.196Z,14.37
2019-02-14T04:55:12.448Z,14.00
2019-02-14T05:00:14.593Z,14.90
2019-02-14T05:02:42.806Z,12.63
2019-02-14T05:05:11.941Z,14.77
2019-02-14T05:07:40.153Z,14.63
2019-02-14T05:10:09.165Z,12.77
2019-02-14T05:15:09.192Z,12.37
2019-02-14T05:17:37.421Z,14.33
2019-02-14T05:20:07.188Z,14.00
2019-02-14T05:22:35.463Z,14.37
2019-02-14T05:25:04.366Z,13.03
2019-02-14T05:27:32.621Z,14.10
2019-02-14T05:30:00.857Z,14.40
2019-02-14T05:32:29.071Z,13.70
2019-02-14T05:34:57.293Z,13.73
2019-02-14T05:37:25.572Z,13.43
2019-02-14T05:39:53.818Z,14.10
2019-02-14T05:42:22.001Z,15.85
2019-02-14T05:44:50.185Z,13.10
2019-02-14T05:47:18.414Z,14.37
2019-02-14T05:49:46.732Z,13.67
2019-02-14T05:54:42.343Z,14.80
2019-02-14T05:59:38.009Z,15.20
2019-02-14T06:04:33.551Z,14.10
2019-02-14T06:07:01.778Z,15.25
2019-02-14T06:09:29.993Z,16.15
2019-02-14T06:11:58.200Z,14.37
2019-02-14T06:14:26.412Z,15.13
2019-02-14T06:16:54.598Z,15.20
2019-02-14T06:19:22.820Z,14.90
2019-02-14T06:21:51.113Z,14.75
2019-02-14T06:24:19.308Z,14.13
2019-02-14T06:26:47.499Z,14.80
2019-02-14T06:29:15.752Z,14.73
2019-02-14T06:31:43.961Z,16.33
2019-02-14T06:34:12.209Z,15.70
2019-02-14T06:36:41.303Z,15.57
2019-02-14T06:39:10.413Z,15.70
2019-02-14T06:41:38.593Z,16.25
2019-02-14T06:44:06.812Z,15.10
2019-02-14T06:46:35.008Z,18.25
2019-02-14T06:49:03.224Z,17.20
2019-02-14T06:51:31.461Z,16.23
2019-02-14T06:53:59.669Z,15.90
2019-02-14T06:56:27.913Z,16.13
2019-02-14T06:58:56.096Z,16.50
2019-02-14T07:01:25.193Z,14.83
2019-02-14T07:03:53.392Z,15.73
2019-02-14T07:06:21.625Z,15.25
2019-02-14T07:08:49.833Z,15.10
2019-02-14T07:11:18.050Z,14.23
2019-02-14T07:13:46.242Z,14.30
2019-02-14T07:16:14.428Z,15.20
2019-02-14T07:18:42.620Z,16.53
2019-02-14T07:21:10.909Z,13.77
2019-02-14T07:23:39.151Z,15.93
2019-02-14T07:26:07.331Z,14.63
2019-02-14T07:28:35.521Z,14.50
2019-02-14T07:31:03.736Z,15.70
2019-02-14T07:33:31.964Z,16.20
2019-02-14T07:36:00.276Z,15.08
2019-02-14T08:12:51.582Z,15.83
2019-02-14T08:17:47.204Z,16.12
2019-02-14T08:20:16.277Z,15.03
2019-02-14T08:22:44.497Z,15.00
2019-02-14T08:25:13.286Z,14.50
2019-02-14T08:27:41.473Z,16.60
2019-02-14T08:30:11.199Z,15.10
2019-02-14T08:32:39.471Z,15.87
2019-02-14T08:35:07.946Z,14.60
2019-02-14T08:37:44.661Z,15.17
2019-02-14T08:40:07.604Z,15.07
2019-02-14T08:42:35.788Z,15.93
2019-02-14T08:45:05.480Z,15.70
2019-02-14T08:47:33.673Z,16.03
2019-02-14T08:50:01.872Z,15.93
2019-02-14T08:52:30.173Z,16.03
2019-02-14T08:54:58.360Z,17.00
2019-02-14T08:57:26.588Z,15.53
2019-02-14T08:59:54.774Z,16.77
2019-02-14T09:02:22.994Z,15.53
2019-02-14T09:04:51.175Z,15.90
2019-02-14T09:07:19.400Z,16.27
2019-02-14T09:09:47.625Z,16.83
2019-02-14T09:12:15.916Z,15.00
2019-02-14T09:14:44.147Z,14.70
2019-02-14T09:17:12.397Z,15.15
2019-02-14T09:19:40.590Z,16.90
2019-02-14T09:22:08.819Z,15.55
2019-02-14T09:24:37.973Z,15.40
2019-02-14T09:27:06.160Z,15.30
2019-02-14T09:29:34.407Z,15.00
2019-02-14T09:44:19.488Z,14.00
2019-02-14T09:46:47.727Z,14.00
2019-02-14T09:49:16.832Z,13.90
2019-02-14T09:51:46.636Z,14.63
2019-02-14T09:54:14.811Z,13.53
2019-02-14T09:56:43.054Z,13.07
2019-02-14T09:59:11.267Z,13.70
2019-02-14T10:01:39.540Z,13.53
2019-02-14T10:04:08.633Z,12.90
2019-02-14T10:06:37.103Z,13.47
2019-02-14T10:09:06.160Z,14.10
2019-02-14T10:11:34.398Z,13.25
2019-02-14T10:14:03.700Z,12.00
2019-02-14T10:16:32.081Z,10.77
2019-02-14T10:19:00.267Z,11.27
2019-02-14T10:21:28.480Z,10.73
2019-02-14T10:23:56.696Z,10.20
2019-02-14T10:26:24.986Z,11.10
2019-02-14T10:28:53.174Z,13.00
2019-02-14T10:31:21.389Z,11.70
2019-02-14T10:43:39.020Z,12.75
2019-02-14T10:46:07.240Z,13.50
2019-02-14T10:48:35.429Z,12.10
2019-02-14T10:51:03.710Z,13.95
2019-02-14T10:53:31.895Z,13.43
2019-02-14T10:56:00.100Z,13.27
2019-02-14T10:58:28.292Z,14.00
2019-02-14T11:00:56.525Z,11.87
2019-02-14T11:03:24.795Z,11.75
2019-02-14T11:05:53.021Z,10.67
2019-02-14T11:08:21.200Z,10.37
2019-02-14T11:10:49.441Z,10.23
2019-02-14T11:13:17.661Z,12.63
2019-02-14T11:15:45.840Z,12.85
2019-02-14T11:18:14.065Z,12.13
2019-02-14T11:20:42.246Z,13.17
2019-02-14T11:25:38.479Z,12.87
2019-02-14T11:28:06.721Z,11.50
2019-02-14T11:30:34.976Z,12.93
2019-02-14T11:33:03.194Z,12.27
2019-02-14T11:35:32.335Z,12.73
2019-02-14T11:38:00.583Z,10.93
2019-02-14T11:40:28.832Z,12.43
2019-02-14T11:42:57.008Z,10.40
2019-02-14T11:45:26.191Z,10.80
2019-02-14T11:47:54.389Z,10.80
2019-02-14T11:50:23.498Z,9.90
2019-02-14T11:52:51.727Z,11.03
2019-02-14T11:55:19.997Z,11.07
2019-02-14T11:57:48.453Z,10.10
2019-02-14T12:00:21.990Z,11.40
2019-02-14T12:02:55.728Z,11.80
2019-02-14T12:05:21.055Z,11.23
2019-02-14T12:07:49.251Z,11.40
2019-02-14T12:10:17.469Z,11.00
2019-02-14T12:12:45.668Z,11.10
2019-02-14T12:15:14.112Z,11.43
2019-02-14T12:17:42.381Z,12.43
2019-02-14T12:27:36.715Z,12.40
2019-02-14T12:34:59.655Z,12.47
2019-02-14T12:37:27.839Z,13.90
2019-02-14T12:39:56.056Z,13.23
2019-02-14T12:42:24.281Z,13.90
2019-02-14T12:44:52.476Z,13.23
2019-02-14T12:47:20.664Z,13.47
2019-02-14T12:49:48.874Z,13.90
2019-02-14T12:52:17.089Z,14.57
2019-02-14T12:54:45.321Z,14.07
2019-02-14T12:57:14.433Z,14.23
2019-02-14T13:02:10.029Z,14.20
2019-02-14T13:04:38.232Z,15.83
2019-02-14T13:07:06.665Z,15.30
2019-02-14T13:09:34.955Z,15.80
2019-02-14T13:19:25.242Z,14.93
2019-02-14T13:21:53.423Z,14.40
2019-02-14T13:26:49.000Z,15.40
2019-02-14T13:29:17.193Z,14.37
2019-02-14T13:31:45.417Z,14.50
2019-02-14T13:34:13.605Z,15.33
2019-02-14T13:36:41.937Z,15.03
2019-02-14T13:39:10.460Z,15.00
2019-02-14T13:41:38.678Z,14.57
2019-02-14T13:44:06.930Z,14.23
2019-02-14T13:46:35.141Z,15.47
2019-02-14T13:49:03.375Z,14.80
2019-02-14T13:51:31.669Z,14.40
2019-02-14T13:53:59.889Z,14.57
2019-02-14T13:56:28.073Z,13.53
2019-02-14T13:58:56.289Z,14.97
2019-02-14T14:01:24.541Z,14.77
2019-02-14T14:03:52.753Z,14.17
2019-02-14T14:06:20.938Z,14.87
2019-02-14T14:08:49.131Z,13.83
2019-02-14T14:11:17.373Z,14.57
2019-02-14T14:13:45.589Z,14.20
2019-02-14T14:16:13.780Z,14.30
2019-02-14T14:18:42.015Z,13.57
2019-02-14T14:21:10.201Z,13.80
2019-02-14T14:23:38.424Z,12.73
2019-02-14T14:26:06.647Z,13.10
2019-02-14T14:28:34.831Z,13.90
2019-02-14T14:31:03.020Z,13.22
2019-02-14T14:33:31.219Z,13.30
2019-02-14T14:35:59.429Z,13.07
2019-02-14T14:38:27.628Z,14.40
2019-02-14T14:40:55.812Z,13.77
2019-02-14T14:43:28.575Z,12.70
2019-02-14T14:45:58.439Z,13.97
2019-02-14T14:48:28.205Z,13.77
2019-02-14T14:50:56.432Z,13.50
2019-02-14T14:53:24.677Z,14.50
2019-02-14T14:55:52.893Z,13.73
2019-02-14T14:58:21.097Z,13.80
2019-02-14T15:00:49.313Z,14.20
2019-02-14T15:03:17.524Z,14.53
2019-02-14T15:05:45.714Z,14.50
2019-02-14T15:08:13.962Z,13.50
2019-02-14T15:10:42.143Z,14.53
2019-02-14T15:13:10.373Z,14.07
2019-02-14T15:15:38.705Z,13.40
2019-02-14T15:18:07.011Z,13.77
2019-02-14T15:20:35.304Z,13.13
2019-02-14T15:23:03.591Z,13.57
2019-02-14T15:25:31.872Z,13.28
2019-02-14T15:28:00.092Z,13.30
2019-02-14T15:30:28.276Z,13.20
2019-02-14T15:32:56.472Z,13.33
2019-02-14T15:35:24.662Z,13.43
2019-02-14T15:37:52.943Z,13.08
2019-02-14T15:40:21.165Z,13.60
2019-02-14T15:42:49.379Z,13.87
2019-02-14T15:45:17.657Z,12.85
2019-02-14T15:47:45.981Z,13.90
2019-02-14T15:50:14.234Z,13.60
2019-02-14T15:52:42.424Z,13.37
2019-02-14T15:55:10.681Z,14.70
2019-02-14T15:57:40.574Z,13.80
2019-02-14T16:00:10.912Z,12.90
2019-02-14T16:02:39.263Z,14.13
2019-02-14T16:05:07.886Z,13.20
2019-02-14T16:07:37.032Z,13.50
2019-02-14T16:10:07.320Z,12.70
2019-02-14T16:12:35.575Z,14.63
2019-02-14T16:15:06.065Z,14.20
2019-02-14T16:17:35.409Z,14.50
2019-02-14T16:20:04.705Z,14.53
2019-02-14T16:22:32.937Z,14.50
2019-02-14T16:25:02.588Z,14.33
2019-02-14T16:27:31.046Z,14.73
2019-02-14T16:29:59.308Z,14.40
2019-02-14T16:32:27.560Z,15.70
2019-02-14T16:34:55.816Z,14.53
2019-02-14T16:37:24.048Z,14.93
2019-02-14T16:39:54.217Z,14.80
2019-02-14T16:42:22.213Z,16.03
2019-02-14T16:44:50.392Z,15.53
2019-02-14T16:47:18.642Z,15.30
2019-02-14T16:49:46.855Z,15.10
2019-02-14T16:52:15.037Z,16.33
2019-02-14T16:54:43.266Z,15.43
2019-02-14T16:57:11.452Z,14.80
2019-02-14T16:59:39.677Z,15.90
2019-02-14T17:02:07.947Z,14.67
2019-02-14T17:04:37.125Z,15.60
2019-02-14T17:07:05.359Z,17.30
2019-02-14T17:09:33.632Z,17.40
2019-02-14T17:12:01.876Z,18.00
2019-02-14T17:14:30.105Z,17.43
2019-02-14T17:16:58.290Z,19.70
2019-02-14T17:19:26.514Z,19.27
2019-02-14T17:21:54.805Z,18.23
2019-02-14T17:24:23.087Z,17.73
2019-02-14T17:26:51.280Z,17.47
2019-02-14T17:29:19.495Z,18.23
2019-02-14T17:31:47.722Z,19.10
2019-02-14T17:34:15.937Z,19.97
2019-02-14T17:36:44.176Z,18.90
2019-02-14T17:39:12.435Z,22.70
2019-02-14T17:41:40.628Z,22.50
2019-02-14T17:44:08.869Z,20.73
2019-02-14T17:46:37.162Z,20.80
2019-02-14T17:49:05.359Z,21.37
2019-02-14T17:51:33.563Z,19.17
2019-02-14T17:54:01.912Z,19.70
2019-02-14T17:56:30.193Z,19.00
2019-02-14T17:58:58.379Z,21.00
2019-02-14T18:01:26.605Z,22.00
2019-02-14T18:03:54.849Z,20.07
2019-02-14T18:06:23.031Z,20.82
2019-02-14T18:08:51.248Z,21.93
2019-02-14T18:11:19.428Z,24.03
2019-02-14T18:13:47.677Z,23.50
2019-02-14T18:16:15.954Z,24.20
2019-02-14T18:18:44.176Z,23.83
2019-02-14T18:21:12.404Z,21.25
2019-02-14T18:23:40.697Z,21.77
2019-02-14T18:26:08.899Z,21.80
2019-02-14T18:28:37.082Z,20.90
2019-02-14T18:31:05.300Z,22.10
2019-02-14T18:33:33.480Z,23.03
2019-02-14T18:36:01.720Z,21.33
2019-02-14T18:38:30.467Z,21.40
2019-02-14T18:41:04.081Z,20.83
2019-02-14T18:43:28.613Z,22.50
2019-02-14T18:45:56.857Z,20.93
2019-02-14T18:48:25.069Z,20.87
2019-02-14T18:50:53.251Z,22.70
2019-02-14T18:53:21.493Z,21.50
2019-02-14T18:55:49.713Z,22.47
2019-02-14T18:58:26.049Z,23.40
2019-02-14T19:00:47.891Z,43.23
2019-02-14T19:03:16.096Z,34.77
2019-02-14T19:05:44.313Z,25.27
2019-02-14T19:08:12.542Z,29.20
2019-02-14T19:10:40.823Z,24.50
2019-02-14T19:13:09.035Z,23.90
2019-02-14T19:15:37.216Z,25.40
2019-02-14T19:18:05.399Z,23.07
2019-02-14T19:20:33.672Z,21.40
2019-02-14T19:23:01.941Z,21.47
2019-02-14T19:25:30.184Z,19.70
2019-02-14T19:27:58.471Z,19.87
2019-02-14T19:30:26.662Z,20.53
2019-02-14T19:32:54.843Z,22.40
2019-02-14T19:35:23.487Z,21.33
2019-02-14T19:37:51.757Z,20.57
2019-02-14T19:40:19.944Z,18.53
2019-02-14T19:42:48.251Z,18.67
2019-02-14T19:45:16.494Z,18.77
2019-02-14T19:47:44.715Z,19.67
2019-02-14T19:50:13.470Z,41.02
2019-02-14T19:52:41.696Z,22.53
2019-02-14T19:55:10.035Z,23.50
2019-02-14T19:57:38.269Z,27.70
2019-02-14T20:00:10.790Z,23.80
2019-02-14T20:02:38.988Z,21.37
2019-02-14T20:05:07.953Z,23.50
2019-02-14T20:07:36.210Z,17.60
2019-02-14T20:10:13.971Z,18.48
2019-02-14T20:12:42.241Z,17.43
2019-02-14T20:15:11.547Z,16.97
2019-02-14T20:17:39.731Z,20.53
2019-02-14T20:20:08.559Z,19.20
2019-02-14T20:22:36.865Z,17.10
2019-02-14T20:25:06.821Z,18.87
2019-02-14T20:27:35.036Z,17.98
2019-02-14T20:30:03.874Z,17.47
2019-02-14T20:32:32.064Z,18.62
2019-02-14T20:35:01.841Z,17.40
2019-02-14T20:37:30.353Z,17.10
2019-02-14T20:39:58.564Z,17.37
2019-02-14T20:42:26.773Z,16.60
2019-02-14T20:44:55.036Z,16.37
2019-02-14T20:47:23.262Z,17.40
2019-02-14T20:49:51.440Z,16.53
2019-02-14T20:52:19.675Z,17.40
2019-02-14T20:54:47.848Z,17.37
2019-02-14T20:57:16.050Z,18.37
2019-02-14T20:59:44.231Z,16.33
2019-02-14T21:02:12.443Z,16.60
2019-02-14T21:04:40.686Z,17.20
2019-02-14T21:07:08.864Z,17.43
2019-02-14T21:09:37.097Z,17.80
2019-02-14T21:12:05.275Z,17.83
2019-02-14T21:14:33.492Z,18.80
2019-02-14T21:17:01.734Z,18.50
2019-02-14T21:19:29.974Z,18.37
2019-02-14T21:22:01.710Z,18.17
2019-02-14T21:24:28.099Z,18.80
2019-02-14T21:26:56.356Z,17.87
2019-02-14T21:29:24.549Z,19.60
2019-02-14T21:31:52.909Z,19.87
2019-02-14T21:34:21.297Z,20.82
2019-02-14T21:36:49.560Z,19.03
2019-02-14T21:39:17.792Z,20.47
2019-02-14T21:41:46.109Z,20.70
2019-02-14T21:44:15.265Z,24.17
2019-02-14T21:46:43.486Z,24.50
2019-02-14T21:49:11.671Z,24.70
2019-02-14T21:51:39.867Z,29.00
2019-02-14T21:54:08.061Z,27.70
2019-02-14T21:56:36.272Z,34.90
2019-02-14T21:59:04.486Z,30.83
2019-02-14T22:01:32.674Z,28.37
2019-02-14T22:04:00.940Z,30.23
2019-02-14T22:06:29.117Z,28.87
2019-02-14T22:08:57.317Z,33.83
2019-02-14T22:11:25.569Z,30.03
2019-02-14T22:13:53.861Z,37.55
2019-02-14T22:16:22.154Z,26.80
2019-02-14T22:18:50.431Z,44.33
2019-02-14T22:21:18.725Z,54.25
2019-02-14T22:23:46.949Z,36.57
2019-02-14T22:26:15.659Z,45.10
2019-02-14T22:28:43.952Z,42.27
2019-02-14T22:31:12.176Z,44.83
2019-02-14T22:33:40.413Z,38.70
2019-02-14T22:36:08.625Z,30.27
2019-02-14T22:38:36.850Z,33.60
2019-02-14T22:41:05.043Z,28.63
2019-02-14T22:43:33.258Z,19.77
2019-02-14T22:46:01.491Z,24.85
2019-02-14T22:48:29.781Z,24.73
2019-02-14T22:50:57.993Z,21.50
2019-02-14T22:53:26.180Z,25.37
2019-02-14T22:55:54.380Z,24.67
2019-02-14T22:58:22.596Z,24.83
2019-02-14T23:00:52.375Z,23.07
2019-02-14T23:03:20.672Z,23.43
2019-02-14T23:05:48.929Z,24.87
2019-02-14T23:08:17.146Z,19.80
2019-02-14T23:10:45.349Z,22.27
2019-02-14T23:13:13.569Z,21.47
2019-02-14T23:15:41.782Z,19.80
2019-02-14T23:18:10.015Z,20.90
2019-02-14T23:20:38.296Z,17.97
2019-02-14T23:23:06.556Z,18.02
2019-02-14T23:25:34.773Z,17.35
2019-02-14T23:28:03.028Z,17.10
2019-02-14T23:30:31.276Z,19.13
2019-02-14T23:32:59.577Z,18.40
2019-02-14T23:35:27.784Z,17.52
2019-02-14T23:37:55.980Z,16.10
2019-02-14T23:40:24.193Z,14.97
2019-02-14T23:42:52.417Z,16.80
2019-02-14T23:45:20.657Z,15.03
2019-02-14T23:47:48.915Z,14.83
2019-02-14T23:50:17.165Z,15.03
2019-02-14T23:52:45.340Z,17.00
2019-02-14T23:55:13.548Z,17.60
2019-02-14T23:57:41.776Z,15.67
